sensor_id;sensor_type;location;lat;lon;timestamp;P1;durP1;ratioP1;P2;durP2;ratioP2
63699;SDS011;49845;47.130;142.766;2024-02-26T00:00:57;9.27;;;4.57;;
63699;SDS011;49845;47.130;142.766;2024-02-26T00:03:28;9.93;;;5.47;;
63699;SDS011;49845;47.130;142.766;2024-02-26T00:06:01;14.45;;;5.88;;
63699;SDS011;49845;47.130;142.766;2024-02-26T00:08:32;12.27;;;5.45;;
63699;SDS011;49845;47.130;142.766;2024-02-26T00:11:03;13.55;;;5.85;;
63699;SDS011;49845;47.130;142.766;2024-02-26T00:13:33;12.82;;;4.85;;
63699;SDS011;49845;47.130;142.766;2024-02-26T00:16:04;9.75;;;4.90;;
63699;SDS011;49845;47.130;142.766;2024-02-26T00:18:35;10.60;;;4.60;;
63699;SDS011;49845;47.130;142.766;2024-02-26T00:21:07;20.90;;;5.90;;
63699;SDS011;49845;47.130;142.766;2024-02-26T00:23:37;17.45;;;5.63;;
63699;SDS011;49845;47.130;142.766;2024-02-26T00:26:08;18.67;;;5.45;;
63699;SDS011;49845;47.130;142.766;2024-02-26T00:28:39;10.63;;;4.72;;
63699;SDS011;49845;47.130;142.766;2024-02-26T00:31:10;13.98;;;5.25;;
63699;SDS011;49845;47.130;142.766;2024-02-26T00:33:40;15.32;;;4.90;;
63699;SDS011;49845;47.130;142.766;2024-02-26T00:36:12;15.45;;;5.18;;
63699;SDS011;49845;47.130;142.766;2024-02-26T00:38:43;9.98;;;4.93;;
63699;SDS011;49845;47.130;142.766;2024-02-26T00:41:18;9.73;;;4.95;;
63699;SDS011;49845;47.130;142.766;2024-02-26T00:43:49;8.50;;;4.68;;
63699;SDS011;49845;47.130;142.766;2024-02-26T00:46:19;8.40;;;4.95;;
63699;SDS011;49845;47.130;142.766;2024-02-26T00:48:49;9.77;;;3.90;;
63699;SDS011;49845;47.130;142.766;2024-02-26T00:51:22;7.63;;;4.57;;
63699;SDS011;49845;47.130;142.766;2024-02-26T00:53:52;8.82;;;4.82;;
63699;SDS011;49845;47.130;142.766;2024-02-26T00:56:23;4.57;;;3.70;;
63699;SDS011;49845;47.130;142.766;2024-02-26T00:58:54;6.65;;;4.13;;
63699;SDS011;49845;47.130;142.766;2024-02-26T01:01:24;6.40;;;4.18;;
63699;SDS011;49845;47.130;142.766;2024-02-26T01:03:55;9.35;;;4.78;;
63699;SDS011;49845;47.130;142.766;2024-02-26T01:06:27;12.55;;;5.15;;
63699;SDS011;49845;47.130;142.766;2024-02-26T01:08:58;7.05;;;3.78;;
63699;SDS011;49845;47.130;142.766;2024-02-26T01:11:28;8.80;;;4.28;;
63699;SDS011;49845;47.130;142.766;2024-02-26T01:13:59;6.60;;;4.25;;
63699;SDS011;49845;47.130;142.766;2024-02-26T01:16:31;5.60;;;3.65;;
63699;SDS011;49845;47.130;142.766;2024-02-26T01:19:01;3.65;;;2.95;;
63699;SDS011;49845;47.130;142.766;2024-02-26T01:21:34;4.35;;;3.00;;
63699;SDS011;49845;47.130;142.766;2024-02-26T01:24:05;3.83;;;2.60;;
63699;SDS011;49845;47.130;142.766;2024-02-26T01:26:36;3.58;;;2.75;;
63699;SDS011;49845;47.130;142.766;2024-02-26T01:29:06;5.65;;;3.00;;
63699;SDS011;49845;47.130;142.766;2024-02-26T01:31:37;5.57;;;3.28;;
63699;SDS011;49845;47.130;142.766;2024-02-26T01:34:07;4.55;;;2.55;;
63699;SDS011;49845;47.130;142.766;2024-02-26T01:36:40;4.25;;;3.40;;
63699;SDS011;49845;47.130;142.766;2024-02-26T01:39:10;3.33;;;2.83;;
63699;SDS011;49845;47.130;142.766;2024-02-26T01:41:41;7.57;;;3.10;;
63699;SDS011;49845;47.130;142.766;2024-02-26T01:44:12;4.60;;;3.10;;
63699;SDS011;49845;47.130;142.766;2024-02-26T01:46:43;7.00;;;3.80;;
63699;SDS011;49845;47.130;142.766;2024-02-26T01:49:13;9.57;;;4.53;;
63699;SDS011;49845;47.130;142.766;2024-02-26T01:51:47;9.02;;;4.38;;
63699;SDS011;49845;47.130;142.766;2024-02-26T01:54:17;7.40;;;4.75;;
63699;SDS011;49845;47.130;142.766;2024-02-26T01:56:48;7.13;;;4.40;;
63699;SDS011;49845;47.130;142.766;2024-02-26T01:59:19;7.70;;;4.70;;
63699;SDS011;49845;47.130;142.766;2024-02-26T02:01:52;5.53;;;3.83;;
63699;SDS011;49845;47.130;142.766;2024-02-26T02:04:24;6.60;;;3.60;;
63699;SDS011;49845;47.130;142.766;2024-02-26T02:06:57;8.30;;;4.15;;
63699;SDS011;49845;47.130;142.766;2024-02-26T02:09:29;6.88;;;4.30;;
63699;SDS011;49845;47.130;142.766;2024-02-26T02:12:00;7.38;;;3.70;;
63699;SDS011;49845;47.130;142.766;2024-02-26T02:14:31;4.55;;;3.28;;
63699;SDS011;49845;47.130;142.766;2024-02-26T02:17:01;8.88;;;3.78;;
63699;SDS011;49845;47.130;142.766;2024-02-26T02:19:32;5.70;;;3.72;;
63699;SDS011;49845;47.130;142.766;2024-02-26T02:22:04;6.57;;;4.00;;
63699;SDS011;49845;47.130;142.766;2024-02-26T02:24:34;7.68;;;3.92;;
63699;SDS011;49845;47.130;142.766;2024-02-26T02:27:05;5.97;;;3.30;;
63699;SDS011;49845;47.130;142.766;2024-02-26T02:29:36;6.47;;;3.42;;
63699;SDS011;49845;47.130;142.766;2024-02-26T02:32:06;4.70;;;3.00;;
63699;SDS011;49845;47.130;142.766;2024-02-26T02:34:38;6.60;;;3.40;;
63699;SDS011;49845;47.130;142.766;2024-02-26T02:37:10;3.22;;;2.67;;
63699;SDS011;49845;47.130;142.766;2024-02-26T02:39:41;7.60;;;3.15;;
63699;SDS011;49845;47.130;142.766;2024-02-26T02:42:12;4.38;;;3.00;;
63699;SDS011;49845;47.130;142.766;2024-02-26T02:44:42;4.10;;;2.83;;
63699;SDS011;49845;47.130;142.766;2024-02-26T02:47:13;4.00;;;2.65;;
63699;SDS011;49845;47.130;142.766;2024-02-26T02:49:43;7.10;;;3.67;;
63699;SDS011;49845;47.130;142.766;2024-02-26T02:52:15;4.03;;;2.95;;
63699;SDS011;49845;47.130;142.766;2024-02-26T02:54:46;6.90;;;3.15;;
63699;SDS011;49845;47.130;142.766;2024-02-26T02:57:16;9.45;;;3.10;;
63699;SDS011;49845;47.130;142.766;2024-02-26T02:59:47;4.88;;;2.40;;
63699;SDS011;49845;47.130;142.766;2024-02-26T03:02:17;4.85;;;3.17;;
63699;SDS011;49845;47.130;142.766;2024-02-26T03:04:48;5.22;;;3.17;;
63699;SDS011;49845;47.130;142.766;2024-02-26T03:07:20;6.80;;;3.42;;
63699;SDS011;49845;47.130;142.766;2024-02-26T03:09:51;5.85;;;3.40;;
63699;SDS011;49845;47.130;142.766;2024-02-26T03:12:21;5.78;;;2.83;;
63699;SDS011;49845;47.130;142.766;2024-02-26T03:14:52;5.25;;;3.25;;
63699;SDS011;49845;47.130;142.766;2024-02-26T03:17:22;3.85;;;3.08;;
63699;SDS011;49845;47.130;142.766;2024-02-26T03:19:53;3.75;;;2.50;;
63699;SDS011;49845;47.130;142.766;2024-02-26T03:22:25;4.00;;;2.85;;
63699;SDS011;49845;47.130;142.766;2024-02-26T03:24:55;4.05;;;2.80;;
63699;SDS011;49845;47.130;142.766;2024-02-26T03:27:26;3.63;;;2.83;;
63699;SDS011;49845;47.130;142.766;2024-02-26T03:29:57;5.60;;;3.22;;
63699;SDS011;49845;47.130;142.766;2024-02-26T03:32:27;3.80;;;2.80;;
63699;SDS011;49845;47.130;142.766;2024-02-26T03:34:58;4.97;;;3.10;;
63699;SDS011;49845;47.130;142.766;2024-02-26T03:37:30;3.20;;;2.60;;
63699;SDS011;49845;47.130;142.766;2024-02-26T03:40:00;5.22;;;3.10;;
63699;SDS011;49845;47.130;142.766;2024-02-26T03:42:31;5.53;;;2.90;;
63699;SDS011;49845;47.130;142.766;2024-02-26T03:45:02;5.35;;;2.80;;
63699;SDS011;49845;47.130;142.766;2024-02-26T03:47:33;4.75;;;3.33;;
63699;SDS011;49845;47.130;142.766;2024-02-26T03:50:04;4.75;;;2.70;;
63699;SDS011;49845;47.130;142.766;2024-02-26T03:52:37;3.72;;;2.85;;
63699;SDS011;49845;47.130;142.766;2024-02-26T03:55:08;5.70;;;2.83;;
63699;SDS011;49845;47.130;142.766;2024-02-26T03:57:39;6.47;;;2.83;;
63699;SDS011;49845;47.130;142.766;2024-02-26T04:00:09;4.55;;;3.58;;
63699;SDS011;49845;47.130;142.766;2024-02-26T04:02:41;4.35;;;2.83;;
63699;SDS011;49845;47.130;142.766;2024-02-26T04:05:13;5.45;;;2.83;;
63699;SDS011;49845;47.130;142.766;2024-02-26T04:07:45;7.20;;;3.00;;
63699;SDS011;49845;47.130;142.766;2024-02-26T04:10:16;6.50;;;2.90;;
63699;SDS011;49845;47.130;142.766;2024-02-26T04:12:46;4.72;;;3.03;;
63699;SDS011;49845;47.130;142.766;2024-02-26T04:15:17;4.43;;;2.92;;
63699;SDS011;49845;47.130;142.766;2024-02-26T04:17:48;2.35;;;2.15;;
63699;SDS011;49845;47.130;142.766;2024-02-26T04:20:18;11.30;;;3.05;;
63699;SDS011;49845;47.130;142.766;2024-02-26T04:22:50;2.95;;;2.33;;
63699;SDS011;49845;47.130;142.766;2024-02-26T04:25:21;6.15;;;2.88;;
63699;SDS011;49845;47.130;142.766;2024-02-26T04:27:51;4.95;;;2.63;;
63699;SDS011;49845;47.130;142.766;2024-02-26T04:30:22;7.47;;;3.00;;
63699;SDS011;49845;47.130;142.766;2024-02-26T04:32:53;4.30;;;2.90;;
63699;SDS011;49845;47.130;142.766;2024-02-26T04:35:23;6.28;;;2.75;;
63699;SDS011;49845;47.130;142.766;2024-02-26T04:37:55;4.82;;;3.00;;
63699;SDS011;49845;47.130;142.766;2024-02-26T04:40:26;7.05;;;3.47;;
63699;SDS011;49845;47.130;142.766;2024-02-26T04:42:56;5.68;;;3.17;;
63699;SDS011;49845;47.130;142.766;2024-02-26T04:45:26;5.25;;;3.17;;
63699;SDS011;49845;47.130;142.766;2024-02-26T04:47:57;4.43;;;2.90;;
63699;SDS011;49845;47.130;142.766;2024-02-26T04:50:28;4.20;;;2.80;;
63699;SDS011;49845;47.130;142.766;2024-02-26T04:53:00;3.35;;;2.53;;
63699;SDS011;49845;47.130;142.766;2024-02-26T04:55:31;4.57;;;2.60;;
63699;SDS011;49845;47.130;142.766;2024-02-26T04:58:01;6.55;;;3.20;;
63699;SDS011;49845;47.130;142.766;2024-02-26T05:00:32;4.10;;;3.30;;
63699;SDS011;49845;47.130;142.766;2024-02-26T05:03:02;6.57;;;3.10;;
63699;SDS011;49845;47.130;142.766;2024-02-26T05:05:33;5.88;;;2.35;;
63699;SDS011;49845;47.130;142.766;2024-02-26T05:08:06;4.82;;;3.20;;
63699;SDS011;49845;47.130;142.766;2024-02-26T05:10:37;4.38;;;2.40;;
63699;SDS011;49845;47.130;142.766;2024-02-26T05:13:09;6.00;;;2.75;;
63699;SDS011;49845;47.130;142.766;2024-02-26T05:15:39;5.45;;;3.03;;
63699;SDS011;49845;47.130;142.766;2024-02-26T05:18:09;6.20;;;2.95;;
63699;SDS011;49845;47.130;142.766;2024-02-26T05:20:40;3.30;;;2.47;;
63699;SDS011;49845;47.130;142.766;2024-02-26T05:23:12;3.55;;;2.50;;
63699;SDS011;49845;47.130;142.766;2024-02-26T05:25:43;5.78;;;2.92;;
63699;SDS011;49845;47.130;142.766;2024-02-26T05:28:15;7.68;;;2.60;;
63699;SDS011;49845;47.130;142.766;2024-02-26T05:30:48;5.00;;;2.40;;
63699;SDS011;49845;47.130;142.766;2024-02-26T05:33:18;3.67;;;2.72;;
63699;SDS011;49845;47.130;142.766;2024-02-26T05:35:49;4.60;;;3.10;;
63699;SDS011;49845;47.130;142.766;2024-02-26T05:38:21;3.78;;;3.15;;
63699;SDS011;49845;47.130;142.766;2024-02-26T05:40:52;5.05;;;2.90;;
63699;SDS011;49845;47.130;142.766;2024-02-26T05:43:22;5.95;;;3.10;;
63699;SDS011;49845;47.130;142.766;2024-02-26T05:45:53;4.78;;;3.00;;
63699;SDS011;49845;47.130;142.766;2024-02-26T05:48:23;7.18;;;3.38;;
63699;SDS011;49845;47.130;142.766;2024-02-26T05:50:54;5.88;;;3.67;;
63699;SDS011;49845;47.130;142.766;2024-02-26T05:53:26;6.90;;;2.83;;
63699;SDS011;49845;47.130;142.766;2024-02-26T05:55:56;4.78;;;2.83;;
63699;SDS011;49845;47.130;142.766;2024-02-26T05:58:27;4.03;;;2.45;;
63699;SDS011;49845;47.130;142.766;2024-02-26T06:00:57;6.43;;;2.90;;
63699;SDS011;49845;47.130;142.766;2024-02-26T06:03:29;5.18;;;2.97;;
63699;SDS011;49845;47.130;142.766;2024-02-26T06:05:59;3.35;;;2.13;;
63699;SDS011;49845;47.130;142.766;2024-02-26T06:08:32;4.35;;;2.60;;
63699;SDS011;49845;47.130;142.766;2024-02-26T06:11:04;4.32;;;2.70;;
63699;SDS011;49845;47.130;142.766;2024-02-26T06:13:36;3.88;;;2.70;;
63699;SDS011;49845;47.130;142.766;2024-02-26T06:16:09;5.90;;;2.85;;
63699;SDS011;49845;47.130;142.766;2024-02-26T06:18:39;6.38;;;2.65;;
63699;SDS011;49845;47.130;142.766;2024-02-26T06:21:10;4.70;;;2.60;;
63699;SDS011;49845;47.130;142.766;2024-02-26T06:23:42;4.80;;;2.30;;
63699;SDS011;49845;47.130;142.766;2024-02-26T06:26:13;5.10;;;2.40;;
63699;SDS011;49845;47.130;142.766;2024-02-26T06:28:43;5.20;;;2.60;;
63699;SDS011;49845;47.130;142.766;2024-02-26T06:31:14;3.20;;;2.30;;
63699;SDS011;49845;47.130;142.766;2024-02-26T06:33:45;7.35;;;2.90;;
63699;SDS011;49845;47.130;142.766;2024-02-26T06:36:16;3.85;;;2.50;;
63699;SDS011;49845;47.130;142.766;2024-02-26T06:38:48;3.58;;;2.20;;
63699;SDS011;49845;47.130;142.766;2024-02-26T06:41:19;3.72;;;2.40;;
63699;SDS011;49845;47.130;142.766;2024-02-26T06:43:54;7.70;;;3.28;;
63699;SDS011;49845;47.130;142.766;2024-02-26T06:46:25;5.70;;;3.15;;
63699;SDS011;49845;47.130;142.766;2024-02-26T06:48:58;3.33;;;2.55;;
63699;SDS011;49845;47.130;142.766;2024-02-26T06:51:29;2.75;;;2.50;;
63699;SDS011;49845;47.130;142.766;2024-02-26T06:54:01;3.65;;;2.38;;
63699;SDS011;49845;47.130;142.766;2024-02-26T06:56:31;3.20;;;2.65;;
63699;SDS011;49845;47.130;142.766;2024-02-26T06:59:02;4.47;;;2.75;;
63699;SDS011;49845;47.130;142.766;2024-02-26T07:01:32;2.90;;;2.60;;
63699;SDS011;49845;47.130;142.766;2024-02-26T07:04:03;3.90;;;2.58;;
63699;SDS011;49845;47.130;142.766;2024-02-26T07:06:34;3.25;;;2.38;;
63699;SDS011;49845;47.130;142.766;2024-02-26T07:09:06;4.90;;;2.47;;
63699;SDS011;49845;47.130;142.766;2024-02-26T07:11:37;3.70;;;2.40;;
63699;SDS011;49845;47.130;142.766;2024-02-26T07:14:09;3.97;;;2.40;;
63699;SDS011;49845;47.130;142.766;2024-02-26T07:16:41;2.97;;;2.50;;
63699;SDS011;49845;47.130;142.766;2024-02-26T07:19:12;5.45;;;2.40;;
63699;SDS011;49845;47.130;142.766;2024-02-26T07:21:42;5.00;;;2.63;;
63699;SDS011;49845;47.130;142.766;2024-02-26T07:24:15;3.88;;;2.60;;
63699;SDS011;49845;47.130;142.766;2024-02-26T07:26:45;3.67;;;2.38;;
63699;SDS011;49845;47.130;142.766;2024-02-26T07:29:16;3.35;;;2.38;;
63699;SDS011;49845;47.130;142.766;2024-02-26T07:31:46;3.58;;;2.30;;
63699;SDS011;49845;47.130;142.766;2024-02-26T07:34:17;4.07;;;2.63;;
63699;SDS011;49845;47.130;142.766;2024-02-26T07:36:48;3.60;;;2.65;;
63699;SDS011;49845;47.130;142.766;2024-02-26T07:39:20;3.05;;;2.70;;
63699;SDS011;49845;47.130;142.766;2024-02-26T07:41:51;3.63;;;2.70;;
63699;SDS011;49845;47.130;142.766;2024-02-26T07:44:21;3.55;;;2.67;;
63699;SDS011;49845;47.130;142.766;2024-02-26T07:46:52;3.55;;;2.60;;
63699;SDS011;49845;47.130;142.766;2024-02-26T07:49:22;5.35;;;2.65;;
63699;SDS011;49845;47.130;142.766;2024-02-26T07:51:53;3.10;;;2.40;;
63699;SDS011;49845;47.130;142.766;2024-02-26T07:54:27;9.65;;;3.47;;
63699;SDS011;49845;47.130;142.766;2024-02-26T07:56:58;6.05;;;2.78;;
63699;SDS011;49845;47.130;142.766;2024-02-26T07:59:29;5.93;;;2.90;;
63699;SDS011;49845;47.130;142.766;2024-02-26T08:01:59;3.85;;;2.60;;
63699;SDS011;49845;47.130;142.766;2024-02-26T08:04:30;6.43;;;2.30;;
63699;SDS011;49845;47.130;142.766;2024-02-26T08:07:03;4.57;;;2.65;;
63699;SDS011;49845;47.130;142.766;2024-02-26T08:09:35;2.90;;;2.55;;
63699;SDS011;49845;47.130;142.766;2024-02-26T08:12:06;4.22;;;2.78;;
63699;SDS011;49845;47.130;142.766;2024-02-26T08:14:37;6.03;;;3.15;;
63699;SDS011;49845;47.130;142.766;2024-02-26T08:17:08;10.20;;;2.53;;
63699;SDS011;49845;47.130;142.766;2024-02-26T08:19:38;4.20;;;2.65;;
63699;SDS011;49845;47.130;142.766;2024-02-26T08:22:08;3.72;;;2.50;;
63699;SDS011;49845;47.130;142.766;2024-02-26T08:24:45;3.90;;;2.60;;
63699;SDS011;49845;47.130;142.766;2024-02-26T08:27:15;2.60;;;2.40;;
63699;SDS011;49845;47.130;142.766;2024-02-26T08:29:51;3.10;;;2.60;;
63699;SDS011;49845;47.130;142.766;2024-02-26T08:32:21;4.25;;;2.80;;
63699;SDS011;49845;47.130;142.766;2024-02-26T08:34:52;3.95;;;2.65;;
63699;SDS011;49845;47.130;142.766;2024-02-26T08:37:22;3.92;;;2.70;;
63699;SDS011;49845;47.130;142.766;2024-02-26T08:39:54;3.33;;;2.42;;
63699;SDS011;49845;47.130;142.766;2024-02-26T08:42:29;3.75;;;2.55;;
63699;SDS011;49845;47.130;142.766;2024-02-26T08:45:00;5.85;;;2.75;;
63699;SDS011;49845;47.130;142.766;2024-02-26T08:47:30;5.45;;;3.03;;
63699;SDS011;49845;47.130;142.766;2024-02-26T08:50:02;6.13;;;2.60;;
63699;SDS011;49845;47.130;142.766;2024-02-26T08:52:32;4.22;;;2.88;;
63699;SDS011;49845;47.130;142.766;2024-02-26T08:55:05;5.93;;;2.80;;
63699;SDS011;49845;47.130;142.766;2024-02-26T08:57:36;4.25;;;2.70;;
63699;SDS011;49845;47.130;142.766;2024-02-26T09:00:07;4.95;;;2.55;;
63699;SDS011;49845;47.130;142.766;2024-02-26T09:02:40;4.40;;;2.50;;
63699;SDS011;49845;47.130;142.766;2024-02-26T09:05:11;5.68;;;3.15;;
63699;SDS011;49845;47.130;142.766;2024-02-26T09:07:42;5.00;;;2.97;;
63699;SDS011;49845;47.130;142.766;2024-02-26T09:10:14;5.70;;;3.58;;
63699;SDS011;49845;47.130;142.766;2024-02-26T09:12:44;4.88;;;2.78;;
63699;SDS011;49845;47.130;142.766;2024-02-26T09:15:15;5.95;;;2.80;;
63699;SDS011;49845;47.130;142.766;2024-02-26T09:17:45;5.53;;;3.00;;
63699;SDS011;49845;47.130;142.766;2024-02-26T09:20:17;4.28;;;3.25;;
63699;SDS011;49845;47.130;142.766;2024-02-26T09:22:50;11.75;;;3.25;;
63699;SDS011;49845;47.130;142.766;2024-02-26T09:25:22;3.53;;;2.65;;
63699;SDS011;49845;47.130;142.766;2024-02-26T09:27:53;3.80;;;3.25;;
63699;SDS011;49845;47.130;142.766;2024-02-26T09:30:23;5.75;;;3.30;;
63699;SDS011;49845;47.130;142.766;2024-02-26T09:32:54;3.72;;;2.95;;
63699;SDS011;49845;47.130;142.766;2024-02-26T09:35:24;6.40;;;3.42;;
63699;SDS011;49845;47.130;142.766;2024-02-26T09:37:55;4.53;;;2.97;;
63699;SDS011;49845;47.130;142.766;2024-02-26T09:40:27;3.63;;;2.65;;
63699;SDS011;49845;47.130;142.766;2024-02-26T09:42:58;4.00;;;2.92;;
63699;SDS011;49845;47.130;142.766;2024-02-26T09:45:30;29.27;;;10.43;;
63699;SDS011;49845;47.130;142.766;2024-02-26T09:48:02;15.70;;;6.65;;
63699;SDS011;49845;47.130;142.766;2024-02-26T09:50:38;12.30;;;4.82;;
63699;SDS011;49845;47.130;142.766;2024-02-26T09:53:10;17.55;;;6.13;;
63699;SDS011;49845;47.130;142.766;2024-02-26T09:55:44;22.23;;;7.07;;
63699;SDS011;49845;47.130;142.766;2024-02-26T09:58:14;31.88;;;8.15;;
63699;SDS011;49845;47.130;142.766;2024-02-26T10:00:47;21.60;;;7.70;;
63699;SDS011;49845;47.130;142.766;2024-02-26T10:03:25;21.13;;;7.70;;
63699;SDS011;49845;47.130;142.766;2024-02-26T10:06:00;20.25;;;6.40;;
63699;SDS011;49845;47.130;142.766;2024-02-26T10:08:33;19.63;;;8.45;;
63699;SDS011;49845;47.130;142.766;2024-02-26T10:11:07;24.65;;;8.73;;
63699;SDS011;49845;47.130;142.766;2024-02-26T10:13:38;26.17;;;10.07;;
63699;SDS011;49845;47.130;142.766;2024-02-26T10:16:09;12.20;;;6.03;;
63699;SDS011;49845;47.130;142.766;2024-02-26T10:18:46;21.08;;;9.85;;
63699;SDS011;49845;47.130;142.766;2024-02-26T10:21:26;13.32;;;7.35;;
63699;SDS011;49845;47.130;142.766;2024-02-26T10:23:56;13.98;;;8.93;;
63699;SDS011;49845;47.130;142.766;2024-02-26T10:26:28;7.65;;;3.95;;
63699;SDS011;49845;47.130;142.766;2024-02-26T10:28:59;3.97;;;3.55;;
63699;SDS011;49845;47.130;142.766;2024-02-26T10:31:30;5.05;;;3.78;;
63699;SDS011;49845;47.130;142.766;2024-02-26T10:34:01;5.75;;;3.67;;
63699;SDS011;49845;47.130;142.766;2024-02-26T10:36:33;8.90;;;5.13;;
63699;SDS011;49845;47.130;142.766;2024-02-26T10:39:18;23.95;;;9.27;;
63699;SDS011;49845;47.130;142.766;2024-02-26T10:41:50;9.80;;;4.72;;
63699;SDS011;49845;47.130;142.766;2024-02-26T10:44:21;5.70;;;4.15;;
63699;SDS011;49845;47.130;142.766;2024-02-26T10:46:51;5.30;;;3.50;;
63699;SDS011;49845;47.130;142.766;2024-02-26T10:49:22;4.97;;;3.85;;
63699;SDS011;49845;47.130;142.766;2024-02-26T10:51:54;7.10;;;4.85;;
63699;SDS011;49845;47.130;142.766;2024-02-26T10:54:26;9.23;;;5.70;;
63699;SDS011;49845;47.130;142.766;2024-02-26T10:57:00;32.63;;;11.13;;
63699;SDS011;49845;47.130;142.766;2024-02-26T10:59:32;43.03;;;16.50;;
63699;SDS011;49845;47.130;142.766;2024-02-26T11:02:06;27.48;;;11.73;;
63699;SDS011;49845;47.130;142.766;2024-02-26T11:04:40;11.85;;;5.43;;
63699;SDS011;49845;47.130;142.766;2024-02-26T11:07:11;21.23;;;9.07;;
63699;SDS011;49845;47.130;142.766;2024-02-26T11:09:42;23.33;;;8.80;;
63699;SDS011;49845;47.130;142.766;2024-02-26T11:12:21;8.43;;;4.97;;
63699;SDS011;49845;47.130;142.766;2024-02-26T11:14:53;9.88;;;4.80;;
63699;SDS011;49845;47.130;142.766;2024-02-26T11:17:26;8.98;;;5.00;;
63699;SDS011;49845;47.130;142.766;2024-02-26T11:19:59;8.10;;;4.85;;
63699;SDS011;49845;47.130;142.766;2024-02-26T11:22:30;8.07;;;4.15;;
63699;SDS011;49845;47.130;142.766;2024-02-26T11:25:01;7.18;;;5.47;;
63699;SDS011;49845;47.130;142.766;2024-02-26T11:27:35;8.20;;;4.80;;
63699;SDS011;49845;47.130;142.766;2024-02-26T11:30:09;8.65;;;4.60;;
63699;SDS011;49845;47.130;142.766;2024-02-26T11:32:41;13.50;;;9.20;;
63699;SDS011;49845;47.130;142.766;2024-02-26T11:35:15;7.25;;;5.38;;
63699;SDS011;49845;47.130;142.766;2024-02-26T11:37:53;8.88;;;4.97;;
63699;SDS011;49845;47.130;142.766;2024-02-26T11:40:24;10.63;;;6.82;;
63699;SDS011;49845;47.130;142.766;2024-02-26T11:42:56;160.32;;;32.00;;
63699;SDS011;49845;47.130;142.766;2024-02-26T11:48:20;51.92;;;15.02;;
63699;SDS011;49845;47.130;142.766;2024-02-26T11:50:53;136.50;;;32.20;;
63699;SDS011;49845;47.130;142.766;2024-02-26T11:53:24;101.88;;;26.77;;
63699;SDS011;49845;47.130;142.766;2024-02-26T11:56:19;46.97;;;14.57;;
63699;SDS011;49845;47.130;142.766;2024-02-26T11:59:01;11.80;;;6.35;;
63699;SDS011;49845;47.130;142.766;2024-02-26T12:01:40;7.68;;;5.70;;
63699;SDS011;49845;47.130;142.766;2024-02-26T12:04:16;7.00;;;5.20;;
63699;SDS011;49845;47.130;142.766;2024-02-26T12:06:50;21.10;;;7.32;;
63699;SDS011;49845;47.130;142.766;2024-02-26T12:09:32;15.27;;;9.45;;
63699;SDS011;49845;47.130;142.766;2024-02-26T12:12:04;21.02;;;11.75;;
63699;SDS011;49845;47.130;142.766;2024-02-26T12:14:50;25.15;;;11.60;;
63699;SDS011;49845;47.130;142.766;2024-02-26T12:17:21;33.13;;;12.25;;
63699;SDS011;49845;47.130;142.766;2024-02-26T12:19:52;21.40;;;8.25;;
63699;SDS011;49845;47.130;142.766;2024-02-26T12:22:23;11.93;;;6.45;;
63699;SDS011;49845;47.130;142.766;2024-02-26T12:24:58;9.48;;;4.47;;
63699;SDS011;49845;47.130;142.766;2024-02-26T12:27:30;5.80;;;4.78;;
63699;SDS011;49845;47.130;142.766;2024-02-26T12:30:03;7.90;;;5.43;;
63699;SDS011;49845;47.130;142.766;2024-02-26T12:32:34;8.15;;;5.05;;
63699;SDS011;49845;47.130;142.766;2024-02-26T12:35:05;8.23;;;4.90;;
63699;SDS011;49845;47.130;142.766;2024-02-26T12:37:36;9.43;;;5.05;;
63699;SDS011;49845;47.130;142.766;2024-02-26T12:40:10;7.43;;;4.88;;
63699;SDS011;49845;47.130;142.766;2024-02-26T12:42:41;24.85;;;10.13;;
63699;SDS011;49845;47.130;142.766;2024-02-26T12:45:13;25.92;;;9.70;;
63699;SDS011;49845;47.130;142.766;2024-02-26T12:47:44;8.20;;;5.72;;
63699;SDS011;49845;47.130;142.766;2024-02-26T12:50:15;8.00;;;5.00;;
63699;SDS011;49845;47.130;142.766;2024-02-26T12:52:46;11.15;;;6.15;;
63699;SDS011;49845;47.130;142.766;2024-02-26T12:55:17;7.53;;;4.75;;
63699;SDS011;49845;47.130;142.766;2024-02-26T12:57:49;9.52;;;5.40;;
63699;SDS011;49845;47.130;142.766;2024-02-26T13:00:24;12.77;;;4.90;;
63699;SDS011;49845;47.130;142.766;2024-02-26T13:02:56;7.30;;;4.78;;
63699;SDS011;49845;47.130;142.766;2024-02-26T13:05:43;8.18;;;5.43;;
63699;SDS011;49845;47.130;142.766;2024-02-26T13:08:17;6.85;;;4.78;;
63699;SDS011;49845;47.130;142.766;2024-02-26T13:10:48;4.78;;;3.97;;
63699;SDS011;49845;47.130;142.766;2024-02-26T13:13:19;6.70;;;3.78;;
63699;SDS011;49845;47.130;142.766;2024-02-26T13:16:00;7.63;;;4.38;;
63699;SDS011;49845;47.130;142.766;2024-02-26T13:18:31;6.43;;;4.13;;
63699;SDS011;49845;47.130;142.766;2024-02-26T13:21:11;6.35;;;4.63;;
63699;SDS011;49845;47.130;142.766;2024-02-26T13:23:43;5.20;;;4.25;;
63699;SDS011;49845;47.130;142.766;2024-02-26T13:26:18;6.07;;;4.68;;
63699;SDS011;49845;47.130;142.766;2024-02-26T13:28:59;6.32;;;5.03;;
63699;SDS011;49845;47.130;142.766;2024-02-26T13:31:32;9.43;;;5.22;;
63699;SDS011;49845;47.130;142.766;2024-02-26T13:34:11;6.93;;;4.28;;
63699;SDS011;49845;47.130;142.766;2024-02-26T13:36:52;5.93;;;4.18;;
63699;SDS011;49845;47.130;142.766;2024-02-26T13:39:23;6.72;;;4.70;;
63699;SDS011;49845;47.130;142.766;2024-02-26T13:41:55;8.65;;;5.10;;
63699;SDS011;49845;47.130;142.766;2024-02-26T13:44:26;10.18;;;4.93;;
63699;SDS011;49845;47.130;142.766;2024-02-26T13:46:58;8.95;;;5.07;;
63699;SDS011;49845;47.130;142.766;2024-02-26T13:49:28;4.97;;;4.05;;
63699;SDS011;49845;47.130;142.766;2024-02-26T13:51:59;6.35;;;3.72;;
63699;SDS011;49845;47.130;142.766;2024-02-26T13:54:29;6.60;;;3.63;;
63699;SDS011;49845;47.130;142.766;2024-02-26T13:57:00;9.35;;;3.85;;
63699;SDS011;49845;47.130;142.766;2024-02-26T13:59:30;7.75;;;4.20;;
63699;SDS011;49845;47.130;142.766;2024-02-26T14:02:03;7.50;;;4.65;;
63699;SDS011;49845;47.130;142.766;2024-02-26T14:04:34;7.53;;;4.28;;
63699;SDS011;49845;47.130;142.766;2024-02-26T14:07:04;10.23;;;4.32;;
63699;SDS011;49845;47.130;142.766;2024-02-26T14:09:36;13.18;;;4.20;;
63699;SDS011;49845;47.130;142.766;2024-02-26T14:12:15;6.15;;;4.65;;
63699;SDS011;49845;47.130;142.766;2024-02-26T14:14:50;5.25;;;3.90;;
63699;SDS011;49845;47.130;142.766;2024-02-26T14:17:24;4.80;;;3.55;;
63699;SDS011;49845;47.130;142.766;2024-02-26T14:19:55;4.60;;;3.67;;
63699;SDS011;49845;47.130;142.766;2024-02-26T14:22:26;6.80;;;4.35;;
63699;SDS011;49845;47.130;142.766;2024-02-26T14:24:58;9.00;;;4.43;;
63699;SDS011;49845;47.130;142.766;2024-02-26T14:27:28;16.48;;;7.43;;
63699;SDS011;49845;47.130;142.766;2024-02-26T14:29:59;11.88;;;6.93;;
63699;SDS011;49845;47.130;142.766;2024-02-26T14:32:31;6.72;;;4.57;;
63699;SDS011;49845;47.130;142.766;2024-02-26T14:35:06;7.32;;;4.72;;
63699;SDS011;49845;47.130;142.766;2024-02-26T14:37:43;8.45;;;4.57;;
63699;SDS011;49845;47.130;142.766;2024-02-26T14:40:15;17.50;;;8.85;;
63699;SDS011;49845;47.130;142.766;2024-02-26T14:42:46;17.85;;;9.70;;
63699;SDS011;49845;47.130;142.766;2024-02-26T14:45:16;14.27;;;8.57;;
63699;SDS011;49845;47.130;142.766;2024-02-26T14:47:49;12.82;;;7.20;;